Oldtown, ID (83822)

7:34 AM PST on February 07, 2016 (GMT -0800)
Gold Cup Mountain | | Change Station
CLOSE
Current Station
Personal Weather Station
Location: Priest River, ID
Elevation: 2949 ft
Nearby Weather Stations

Elev 2949 ft 48.17 °N, 116.83 °W | Updated 22 seconds ago

Partly Cloudy
Partly Cloudy
29.0 °F
Feels Like 29 °F
N
0.0
Wind Variable Wind from NNW
Gusts 0.0 mph

Today
High -- | Low -- °F
--% Chance of Precip.
Yesterday
High -- | Low -- °F
Precip. -- in
Pressure 30.58 in
Visibility 10.0 miles
Clouds Overcast 11000 ft
Windchill 29 °F
Dew Point 29 °F
Humidity 100%
Rainfall 0.00 in
Snow Depth Not available.
7:08 AM 4:56 PM
Waning Crescent, 1% visible
METAR KSZT 071515Z AUTO 00000KT 10SM OVC110 M03/M03 A3058 RMK AO2
Pressure 30.58 in
Visibility 10.0 miles
Clouds Overcast 11000 ft
Windchill 29 °F
Dew Point 29 °F
Humidity 100%
Rainfall 0.00 in
Snow Depth Not available.
7:08 AM 4:56 PM
Waning Crescent, 1% visible
METAR KSZT 071515Z AUTO 00000KT 10SM OVC110 M03/M03 A3058 RMK AO2

10-Day Weather Forecast

Almanac

Astronomy

Feb. 07, 2016 Rise Set
Actual Time
Civil Twilight
Nautical Twilight
Astronomical Twilight
Moon
Length of Visible Light
Length of Day
Tomorrow will be .
, % of the Moon is Illuminated

Today's Extremes

State Highs State Lows

Community

WunderPhotos

Upload Photos

1,891,214 photos uploaded!

WunderBlog® & News

Nearby

Air Quality

  Air Quality AQ Index Pollutant
Not available.

Snow Depth

Station Depth Elevation

Earthquake Activity

City Distance Mag. Time & Date
Minimum magnitude displayed is 2.5.

Coastal Water Temperatures

Place Temperature

Stations

Nearby Weather Stations

Station Location Temp. Windchill Dew Point Humidity Wind Precip. Elev Updated Type
                   

Watches & Warnings

There are currently no watches in effect.